createdAt,value
2023-04-18T00:00:23.137Z,5.6
2023-04-18T00:02:02.915Z,5.55
2023-04-18T00:03:42.670Z,5.52
2023-04-18T00:05:22.442Z,5.52
2023-04-18T00:07:02.204Z,5.48
2023-04-18T00:08:41.980Z,5.44
2023-04-18T00:10:21.737Z,5.43
2023-04-18T00:12:01.491Z,5.38
2023-04-18T00:13:41.275Z,5.35
2023-04-18T00:15:21.041Z,5.33
2023-04-18T00:17:00.813Z,5.3
2023-04-18T00:18:40.577Z,5.26
2023-04-18T00:20:20.322Z,5.23
2023-04-18T00:22:00.068Z,5.23
2023-04-18T00:23:39.836Z,5.19
2023-04-18T00:25:19.605Z,5.2
2023-04-18T00:26:59.363Z,5.19
2023-04-18T00:28:39.141Z,5.18
2023-04-18T00:30:18.906Z,5.15
2023-04-18T00:31:58.668Z,5.15
2023-04-18T00:33:38.417Z,5.14
2023-04-18T00:35:18.235Z,5.12
2023-04-18T00:36:57.934Z,5.11
2023-04-18T00:38:37.712Z,5.09
2023-04-18T00:40:17.476Z,5.05
2023-04-18T00:41:57.242Z,5.06
2023-04-18T00:43:37.011Z,5.04
2023-04-18T00:45:16.773Z,5.03
2023-04-18T00:46:56.542Z,5.01
2023-04-18T00:48:36.285Z,5
2023-04-18T00:50:16.054Z,4.96
2023-04-18T00:51:55.829Z,4.94
2023-04-18T00:53:35.599Z,4.9
2023-04-18T00:55:15.353Z,4.92
2023-04-18T00:56:55.111Z,4.89
2023-04-18T00:58:34.920Z,4.88
2023-04-18T01:00:14.670Z,4.85
2023-04-18T01:01:54.406Z,4.84
2023-04-18T01:03:34.166Z,4.85
2023-04-18T01:05:13.942Z,4.82
2023-04-18T01:06:53.703Z,4.78
2023-04-18T01:08:33.465Z,4.76
2023-04-18T01:10:13.240Z,4.75
2023-04-18T01:11:52.993Z,4.73
2023-04-18T01:13:32.747Z,4.71
2023-04-18T01:15:12.521Z,4.69
2023-04-18T01:16:52.283Z,4.69
2023-04-18T01:18:32.056Z,4.66
2023-04-18T01:20:11.809Z,4.64
2023-04-18T01:21:51.570Z,4.6
2023-04-18T01:23:31.339Z,4.62
2023-04-18T01:25:11.109Z,4.6
2023-04-18T01:26:50.868Z,4.58
2023-04-18T01:28:30.638Z,4.54
2023-04-18T01:30:10.402Z,4.51
2023-04-18T01:31:50.149Z,4.51
2023-04-18T01:33:29.915Z,4.48
2023-04-18T01:35:09.684Z,4.46
2023-04-18T01:36:49.461Z,4.46
2023-04-18T01:38:29.200Z,4.44
2023-04-18T01:40:08.983Z,4.42
2023-04-18T01:41:48.734Z,4.42
2023-04-18T01:43:28.498Z,4.4
2023-04-18T01:45:08.273Z,4.37
2023-04-18T01:46:48.043Z,4.39
2023-04-18T01:48:27.801Z,4.36
2023-04-18T01:50:07.572Z,4.34
2023-04-18T01:51:47.323Z,4.32
2023-04-18T01:53:27.079Z,4.29
2023-04-18T01:55:06.855Z,4.29
2023-04-18T01:56:46.616Z,4.29
2023-04-18T01:58:26.385Z,4.29
2023-04-18T02:00:06.145Z,4.33
2023-04-18T02:01:45.913Z,4.34
2023-04-18T02:03:25.667Z,4.39
2023-04-18T02:05:05.445Z,4.42
2023-04-18T02:06:45.194Z,4.44
2023-04-18T02:08:24.953Z,4.48
2023-04-18T02:10:04.729Z,4.51
2023-04-18T02:11:44.507Z,4.56
2023-04-18T02:13:24.260Z,4.55
2023-04-18T02:15:04.017Z,4.55
2023-04-18T02:16:43.789Z,4.55
2023-04-18T02:18:23.542Z,4.58
2023-04-18T02:20:03.317Z,4.59
2023-04-18T02:21:43.064Z,4.58
2023-04-18T02:23:22.829Z,4.59
2023-04-18T02:25:02.602Z,4.62
2023-04-18T02:26:42.368Z,4.6
2023-04-18T02:28:22.121Z,4.62
2023-04-18T02:30:01.901Z,4.61
2023-04-18T02:31:41.678Z,4.61
2023-04-18T02:33:21.417Z,4.63
2023-04-18T02:35:01.185Z,4.61
2023-04-18T02:36:40.962Z,4.63
2023-04-18T02:38:20.727Z,4.62
2023-04-18T02:40:00.473Z,4.63
2023-04-18T02:41:40.228Z,4.62
2023-04-18T02:43:20.002Z,4.63
2023-04-18T02:44:59.764Z,4.63
2023-04-18T02:46:39.537Z,4.61
2023-04-18T02:48:19.293Z,4.6
2023-04-18T02:49:59.061Z,4.62
2023-04-18T02:51:38.850Z,4.62
2023-04-18T02:53:18.565Z,4.62
2023-04-18T02:54:58.340Z,4.63
2023-04-18T02:56:38.115Z,4.6
2023-04-18T02:58:17.865Z,4.62
2023-04-18T02:59:57.638Z,4.62
2023-04-18T03:01:37.414Z,4.61
2023-04-18T03:03:17.161Z,4.61
2023-04-18T03:04:56.938Z,4.62
2023-04-18T03:06:36.695Z,4.64
2023-04-18T03:08:16.470Z,4.64
2023-04-18T03:09:56.213Z,4.63
2023-04-18T03:11:36.021Z,4.63
2023-04-18T03:13:15.738Z,4.64
2023-04-18T03:14:55.508Z,4.65
2023-04-18T03:16:35.299Z,4.64
2023-04-18T03:18:15.046Z,4.64
2023-04-18T03:19:54.796Z,4.65
2023-04-18T03:21:34.558Z,4.64
2023-04-18T03:23:14.348Z,4.64
2023-04-18T03:24:54.121Z,4.65
2023-04-18T03:26:33.867Z,4.64
2023-04-18T03:28:13.613Z,4.64
2023-04-18T03:29:53.378Z,4.63
2023-04-18T03:31:33.158Z,4.64
2023-04-18T03:33:12.903Z,4.64
2023-04-18T03:34:52.679Z,4.64
2023-04-18T03:36:32.435Z,4.63
2023-04-18T03:38:12.231Z,4.64
2023-04-18T03:39:51.961Z,4.64
2023-04-18T03:41:31.741Z,4.62
2023-04-18T03:43:11.503Z,4.59
2023-04-18T03:44:51.262Z,4.58
2023-04-18T03:46:31.050Z,4.55
2023-04-18T03:48:10.789Z,4.48
2023-04-18T03:49:50.540Z,4.44
2023-04-18T03:51:30.318Z,4.42
2023-04-18T03:53:10.080Z,4.39
2023-04-18T03:54:49.842Z,4.37
2023-04-18T03:56:29.614Z,4.34
2023-04-18T03:58:09.421Z,4.33
2023-04-18T03:59:49.148Z,4.29
2023-04-18T04:01:28.904Z,4.26
2023-04-18T04:03:08.675Z,4.23
2023-04-18T04:04:48.443Z,4.21
2023-04-18T04:06:28.196Z,4.21
2023-04-18T04:09:47.721Z,4.17
2023-04-18T04:11:27.484Z,4.15
2023-04-18T04:13:07.241Z,4.13
2023-04-18T04:14:47.016Z,4.13
2023-04-18T04:16:26.772Z,4.1
2023-04-18T04:18:06.551Z,4.07
2023-04-18T04:19:46.305Z,4.06
2023-04-18T04:21:26.064Z,4.04
2023-04-18T04:23:05.830Z,4.1
2023-04-18T04:24:45.603Z,4
2023-04-18T04:26:25.367Z,4.02
2023-04-18T04:28:05.137Z,4.03
2023-04-18T04:29:44.880Z,3.99
2023-04-18T04:31:24.654Z,4.07
2023-04-18T04:33:04.408Z,4.03
2023-04-18T04:34:44.196Z,3.99
2023-04-18T04:36:23.935Z,3.99
2023-04-18T04:38:03.734Z,3.99
2023-04-18T04:39:43.470Z,3.99
2023-04-18T04:41:23.229Z,4.01
2023-04-18T04:43:03.005Z,3.97
2023-04-18T04:44:42.753Z,3.94
2023-04-18T04:46:22.522Z,3.88
2023-04-18T04:48:02.296Z,4.01
2023-04-18T04:49:42.051Z,3.98
2023-04-18T04:53:01.583Z,4.01
2023-04-18T04:54:41.348Z,3.99
2023-04-18T04:56:21.135Z,4.01
2023-04-18T04:58:00.868Z,3.98
2023-04-18T04:59:40.644Z,3.99
2023-04-18T05:01:20.439Z,3.99
2023-04-18T05:03:00.163Z,4.01
2023-04-18T05:04:39.918Z,4
2023-04-18T05:06:19.698Z,3.98
2023-04-18T05:07:59.443Z,4.01
2023-04-18T05:09:39.240Z,3.99
2023-04-18T05:11:18.997Z,3.98
2023-04-18T05:12:58.739Z,4.02
2023-04-18T05:14:38.552Z,4.04
2023-04-18T05:16:18.278Z,4.05
2023-04-18T05:17:58.052Z,4.07
2023-04-18T05:19:37.797Z,4.07
2023-04-18T05:21:17.552Z,4.08
2023-04-18T05:22:57.321Z,4.1
2023-04-18T05:24:37.092Z,4.09
2023-04-18T05:26:16.854Z,4.1
2023-04-18T05:27:56.626Z,4.09
2023-04-18T05:29:36.370Z,4.1
2023-04-18T05:31:16.157Z,4.12
2023-04-18T05:32:55.907Z,4.12
2023-04-18T05:34:35.668Z,4.11
2023-04-18T05:36:15.437Z,4.13
2023-04-18T05:37:55.211Z,4.14
2023-04-18T05:39:34.957Z,4.16
2023-04-18T05:41:14.757Z,4.15
2023-04-18T05:42:54.483Z,4.17
2023-04-18T05:44:34.270Z,4.21
2023-04-18T05:46:14.025Z,4.27
2023-04-18T05:47:53.788Z,4.33
2023-04-18T05:49:33.547Z,4.36
2023-04-18T05:51:13.344Z,4.38
2023-04-18T05:52:53.087Z,4.44
2023-04-18T05:54:32.883Z,4.51
2023-04-18T05:56:12.607Z,4.52
2023-04-18T05:57:52.376Z,4.54
2023-04-18T05:59:32.140Z,4.61
2023-04-18T06:01:11.925Z,4.66
2023-04-18T06:02:51.832Z,4.71
2023-04-18T06:04:31.416Z,4.71
2023-04-18T06:06:11.181Z,4.79
2023-04-18T06:07:50.972Z,4.83
2023-04-18T06:09:30.751Z,4.88
2023-04-18T06:11:10.488Z,4.92
2023-04-18T06:12:50.239Z,4.98
2023-04-18T06:14:30.059Z,5.03
2023-04-18T06:16:09.881Z,5.07
2023-04-18T06:17:49.606Z,5.1
2023-04-18T06:19:29.308Z,5.17
2023-04-18T06:21:09.071Z,5.21
2023-04-18T06:22:48.846Z,5.23
2023-04-18T06:24:28.585Z,5.26
2023-04-18T06:26:08.359Z,5.3
2023-04-18T06:27:48.172Z,5.36
2023-04-18T06:29:28.047Z,5.4
2023-04-18T06:31:07.788Z,5.44
2023-04-18T06:32:47.448Z,5.47
2023-04-18T06:34:27.168Z,5.52
2023-04-18T06:36:06.990Z,5.6
2023-04-18T06:37:46.719Z,5.62
2023-04-18T06:39:26.578Z,5.67
2023-04-18T06:41:06.263Z,5.73
2023-04-18T06:42:46.007Z,5.76
2023-04-18T06:44:25.760Z,5.8
2023-04-18T06:46:05.527Z,5.85
2023-04-18T06:47:45.290Z,5.88
2023-04-18T06:49:25.046Z,5.93
2023-04-18T06:51:04.889Z,5.95
2023-04-18T06:52:44.598Z,5.99
2023-04-18T06:54:24.350Z,6.03
2023-04-18T06:56:04.207Z,6.1
2023-04-18T06:57:43.900Z,6.14
2023-04-18T06:59:23.625Z,6.2
2023-04-18T07:01:03.444Z,6.24
2023-04-18T07:02:43.164Z,6.29
2023-04-18T07:04:23.014Z,6.34
2023-04-18T07:06:02.785Z,6.41
2023-04-18T07:07:42.480Z,6.45
2023-04-18T07:09:22.216Z,6.49
2023-04-18T07:11:02.000Z,6.5
2023-04-18T07:12:41.762Z,6.55
2023-04-18T07:14:21.508Z,6.58
2023-04-18T07:16:01.350Z,6.57
2023-04-18T07:17:41.042Z,6.65
2023-04-18T07:19:20.847Z,6.68
2023-04-18T07:21:00.726Z,6.7
2023-04-18T07:22:40.476Z,6.73
2023-04-18T07:24:20.084Z,6.79
2023-04-18T07:25:59.862Z,6.81
2023-04-18T07:27:39.753Z,6.87
2023-04-18T07:29:19.467Z,6.87
2023-04-18T07:30:59.165Z,6.91
2023-04-18T07:32:38.901Z,6.93
2023-04-18T07:34:18.784Z,6.94
2023-04-18T07:35:58.451Z,6.97
2023-04-18T07:37:38.230Z,7.01
2023-04-18T07:39:17.984Z,7.04
2023-04-18T07:40:57.730Z,7.07
2023-04-18T07:42:37.505Z,7.06
2023-04-18T07:44:17.332Z,7.15
2023-04-18T07:45:57.015Z,7.21
2023-04-18T07:47:37.028Z,7.27
2023-04-18T07:49:16.665Z,7.32
2023-04-18T07:50:56.463Z,7.35
2023-04-18T07:52:36.277Z,7.38
2023-04-18T07:54:15.871Z,7.4
2023-04-18T07:55:55.643Z,7.44
2023-04-18T07:57:35.600Z,7.46
2023-04-18T07:59:15.172Z,7.49
2023-04-18T08:00:55.064Z,7.49
2023-04-18T08:02:34.746Z,7.54
2023-04-18T08:04:14.421Z,7.58
2023-04-18T08:05:54.207Z,7.59
2023-04-18T08:07:33.936Z,7.62
2023-04-18T08:09:13.733Z,7.64
2023-04-18T08:10:53.611Z,7.65
2023-04-18T08:12:33.331Z,7.68
2023-04-18T08:14:13.174Z,7.7
2023-04-18T08:15:52.803Z,7.73
2023-04-18T08:17:32.539Z,7.72
2023-04-18T08:19:12.290Z,7.73
2023-04-18T08:20:52.066Z,7.73
2023-04-18T08:22:31.814Z,7.75
2023-04-18T08:24:11.634Z,7.76
2023-04-18T08:25:51.360Z,7.77
2023-04-18T08:27:31.116Z,7.78
2023-04-18T08:29:10.892Z,7.77
2023-04-18T08:30:50.678Z,7.77
2023-04-18T08:32:30.564Z,7.79
2023-04-18T08:34:10.261Z,7.79
2023-04-18T08:35:49.936Z,7.82
2023-04-18T08:37:29.698Z,7.84
2023-04-18T08:39:09.460Z,7.82
2023-04-18T08:40:49.231Z,7.79
2023-04-18T08:42:29.002Z,7.85
2023-04-18T08:44:08.763Z,7.82
2023-04-18T08:45:48.509Z,7.87
2023-04-18T08:47:28.279Z,7.92
2023-04-18T08:49:08.035Z,7.96
2023-04-18T08:50:47.817Z,7.99
2023-04-18T08:52:27.572Z,8.01
2023-04-18T08:54:07.332Z,8.07
2023-04-18T08:55:47.099Z,8.12
2023-04-18T08:57:27.075Z,8.18
2023-04-18T08:59:06.730Z,8.22
2023-04-18T09:00:46.397Z,8.25
2023-04-18T09:02:26.164Z,8.32
2023-04-18T09:04:05.911Z,8.34
2023-04-18T09:05:45.670Z,8.39
2023-04-18T09:07:25.483Z,8.47
2023-04-18T09:09:05.202Z,8.47
2023-04-18T09:10:44.977Z,8.56
2023-04-18T09:12:24.758Z,8.6
2023-04-18T09:14:04.510Z,8.63
2023-04-18T09:15:44.267Z,8.74
2023-04-18T09:17:24.028Z,8.75
2023-04-18T09:19:03.788Z,8.82
2023-04-18T09:20:43.570Z,8.84
2023-04-18T09:22:23.329Z,8.84
2023-04-18T09:24:03.101Z,8.89
2023-04-18T09:25:42.858Z,8.93
2023-04-18T09:27:22.638Z,8.96
2023-04-18T09:29:02.368Z,8.97
2023-04-18T09:30:42.138Z,8.97
2023-04-18T09:32:22.032Z,9.01
2023-04-18T09:34:01.691Z,9.04
2023-04-18T09:35:41.428Z,9.09
2023-04-18T09:37:21.215Z,9.13
2023-04-18T09:39:00.960Z,9.14
2023-04-18T09:40:40.749Z,9.22
2023-04-18T09:42:20.502Z,9.25
2023-04-18T09:44:00.236Z,9.28
2023-04-18T09:45:40.021Z,9.3
2023-04-18T09:47:19.807Z,9.34
2023-04-18T09:48:59.536Z,9.32
2023-04-18T09:50:39.334Z,9.39
2023-04-18T09:52:19.069Z,9.43
2023-04-18T09:53:58.904Z,9.49
2023-04-18T09:55:38.607Z,9.54
2023-04-18T09:57:18.406Z,9.54
2023-04-18T09:58:58.240Z,9.58
2023-04-18T10:00:37.898Z,9.63
2023-04-18T10:02:17.670Z,9.66
2023-04-18T10:03:57.427Z,9.75
2023-04-18T10:05:37.179Z,9.81
2023-04-18T10:07:16.953Z,9.85
2023-04-18T10:08:56.707Z,9.89
2023-04-18T10:10:36.507Z,9.92
2023-04-18T10:12:16.288Z,9.93
2023-04-18T10:13:56.010Z,9.97
2023-04-18T10:15:35.792Z,10.05
2023-04-18T10:17:15.702Z,10.1
2023-04-18T10:18:55.292Z,10.12
2023-04-18T10:20:35.080Z,10.14
2023-04-18T10:22:14.814Z,10.18
2023-04-18T10:23:54.589Z,10.2
2023-04-18T10:25:34.348Z,10.22
2023-04-18T10:27:14.117Z,10.24
2023-04-18T10:28:53.880Z,10.27
2023-04-18T10:30:33.647Z,10.31
2023-04-18T10:32:13.430Z,10.33
2023-04-18T10:33:53.180Z,10.3
2023-04-18T10:35:32.936Z,10.39
2023-04-18T10:37:12.696Z,10.41
2023-04-18T10:38:52.525Z,10.46
2023-04-18T10:40:32.340Z,10.48
2023-04-18T10:42:11.994Z,10.51
2023-04-18T10:43:51.818Z,10.56
2023-04-18T10:45:31.516Z,10.58
2023-04-18T10:47:11.290Z,10.58
2023-04-18T10:48:51.044Z,10.62
2023-04-18T10:50:30.837Z,10.65
2023-04-18T10:52:10.584Z,10.65
2023-04-18T10:53:50.341Z,10.7
2023-04-18T10:55:30.099Z,10.7
2023-04-18T10:57:10.049Z,10.73
2023-04-18T10:58:49.627Z,10.73
2023-04-18T11:00:29.383Z,10.81
2023-04-18T11:02:09.152Z,10.84
2023-04-18T11:03:49.006Z,10.85
2023-04-18T11:05:28.681Z,10.92
2023-04-18T11:07:08.434Z,10.96
2023-04-18T11:08:48.223Z,10.99
2023-04-18T11:10:27.980Z,11.04
2023-04-18T11:12:07.754Z,11.04
2023-04-18T11:13:47.562Z,11.05
2023-04-18T11:15:27.437Z,11.06
2023-04-18T11:17:07.038Z,11.05
2023-04-18T11:18:46.793Z,11.02
2023-04-18T11:20:26.553Z,11.1
2023-04-18T11:22:06.336Z,11.14
2023-04-18T11:23:46.095Z,11.14
2023-04-18T11:25:25.885Z,11.17
2023-04-18T11:27:05.649Z,11.2
2023-04-18T11:28:45.387Z,11.21
2023-04-18T11:30:25.320Z,11.24
2023-04-18T11:32:04.924Z,11.25
2023-04-18T11:33:44.669Z,11.29
2023-04-18T11:35:24.427Z,11.3
2023-04-18T11:37:04.200Z,11.33
2023-04-18T11:38:43.964Z,11.35
2023-04-18T11:40:23.739Z,11.34
2023-04-18T11:42:03.614Z,11.38
2023-04-18T11:43:43.254Z,11.42
2023-04-18T11:45:23.024Z,11.41
2023-04-18T11:47:02.775Z,11.45
2023-04-18T11:48:42.554Z,11.47
2023-04-18T11:50:22.326Z,11.48
2023-04-18T11:52:02.077Z,11.5
2023-04-18T11:53:41.845Z,11.52
2023-04-18T11:55:21.619Z,11.55
2023-04-18T11:57:01.367Z,11.49
2023-04-18T11:58:41.137Z,11.57
2023-04-18T12:00:20.906Z,11.6
2023-04-18T12:02:00.657Z,11.62
2023-04-18T12:03:40.420Z,11.66
2023-04-18T12:05:20.187Z,11.66
2023-04-18T12:08:39.705Z,11.72
2023-04-18T12:10:19.475Z,11.76
2023-04-18T12:11:59.244Z,11.74
2023-04-18T12:13:38.992Z,11.79
2023-04-18T12:15:18.760Z,11.8
2023-04-18T12:16:58.536Z,11.79
2023-04-18T12:18:38.298Z,11.86
2023-04-18T12:21:57.833Z,11.92
2023-04-18T12:23:37.588Z,11.94
2023-04-18T12:25:17.366Z,11.96
2023-04-18T12:28:36.900Z,12.02
2023-04-18T12:30:16.632Z,12.05
2023-04-18T12:31:56.422Z,12.08
2023-04-18T12:33:36.205Z,12.12
2023-04-18T12:35:15.942Z,12.12
2023-04-18T12:36:55.695Z,12.15
2023-04-18T12:38:35.470Z,12.17
2023-04-18T12:41:54.987Z,12.23
2023-04-18T12:43:34.749Z,12.23
2023-04-18T12:45:14.526Z,12.26
2023-04-18T12:46:54.274Z,12.28
2023-04-18T12:48:34.056Z,12.29
2023-04-18T12:50:13.815Z,12.27
2023-04-18T12:51:53.569Z,12.29
2023-04-18T12:53:33.343Z,12.3
2023-04-18T12:55:13.099Z,12.3
2023-04-18T12:56:52.874Z,12.32
2023-04-18T12:58:32.634Z,12.34
2023-04-18T13:00:12.414Z,12.35
2023-04-18T13:01:52.153Z,12.39
2023-04-18T13:03:31.920Z,12.36
2023-04-18T13:05:11.677Z,12.4
2023-04-18T13:06:51.448Z,12.39
2023-04-18T13:08:31.218Z,12.39
2023-04-18T13:10:10.985Z,12.39
2023-04-18T13:11:50.749Z,12.41
2023-04-18T13:13:30.512Z,12.43
2023-04-18T13:15:10.264Z,12.44
2023-04-18T13:16:50.041Z,12.46
2023-04-18T13:18:29.798Z,12.46
2023-04-18T13:20:09.554Z,12.49
2023-04-18T13:21:49.328Z,12.49
2023-04-18T13:23:29.087Z,12.54
2023-04-18T13:25:08.849Z,12.53
2023-04-18T13:26:48.623Z,12.53
2023-04-18T13:28:28.386Z,12.54
2023-04-18T13:30:08.143Z,12.57
2023-04-18T13:31:47.954Z,12.55
2023-04-18T13:33:27.674Z,12.56
2023-04-18T13:35:07.434Z,12.58
2023-04-18T13:36:47.211Z,12.6
2023-04-18T13:38:26.969Z,12.61
2023-04-18T13:40:06.713Z,12.61
2023-04-18T13:41:46.506Z,12.6
2023-04-18T13:43:26.253Z,12.6
2023-04-18T13:45:06.014Z,12.61
2023-04-18T13:46:45.797Z,12.63
2023-04-18T13:48:25.555Z,12.64
2023-04-18T13:50:05.303Z,12.67
2023-04-18T13:51:45.078Z,12.68
2023-04-18T13:53:24.843Z,12.68
2023-04-18T13:55:04.612Z,12.68
2023-04-18T13:56:44.376Z,12.71
2023-04-18T13:58:24.127Z,12.71
2023-04-18T14:00:03.904Z,12.7
2023-04-18T14:01:43.667Z,12.72
2023-04-18T14:03:23.442Z,12.7
2023-04-18T14:05:03.186Z,12.72
2023-04-18T14:06:42.982Z,12.72
2023-04-18T14:08:22.714Z,12.74
2023-04-18T14:10:02.483Z,12.72
2023-04-18T14:11:42.262Z,12.32
2023-04-18T14:13:22.003Z,12.37
2023-04-18T14:15:01.762Z,12.47
2023-04-18T14:16:41.526Z,12.59
2023-04-18T14:18:21.299Z,12.64
2023-04-18T14:20:01.063Z,12.68
2023-04-18T14:21:40.827Z,12.7
2023-04-18T14:23:20.612Z,12.72
2023-04-18T14:25:00.352Z,12.74
2023-04-18T14:26:40.133Z,12.75
2023-04-18T14:28:19.898Z,12.74
2023-04-18T14:29:59.672Z,12.77
2023-04-18T14:31:39.425Z,12.77
2023-04-18T14:33:19.376Z,12.77
2023-04-18T14:34:59.228Z,12.77
2023-04-18T14:36:38.776Z,12.78
2023-04-18T14:38:18.640Z,12.79
2023-04-18T14:39:58.372Z,12.76
2023-04-18T14:41:38.051Z,12.79
2023-04-18T14:43:17.876Z,12.78
2023-04-18T14:44:57.509Z,12.79
2023-04-18T14:46:37.339Z,12.79
2023-04-18T14:48:17.217Z,12.83
2023-04-18T14:49:56.827Z,12.8
2023-04-18T14:51:36.764Z,12.82
2023-04-18T14:53:16.475Z,12.82
2023-04-18T14:54:56.250Z,12.81
2023-04-18T14:56:35.940Z,12.81
2023-04-18T14:58:15.654Z,12.82
2023-04-18T14:59:55.496Z,12.81
2023-04-18T15:01:35.164Z,12.82
2023-04-18T15:03:14.908Z,12.81
2023-04-18T15:04:54.686Z,12.81
2023-04-18T15:06:34.456Z,12.83
2023-04-18T15:08:14.287Z,12.83
2023-04-18T15:09:53.990Z,12.84
2023-04-18T15:11:33.742Z,12.82
2023-04-18T15:13:13.499Z,12.83
2023-04-18T15:14:53.375Z,12.84
2023-04-18T15:16:33.045Z,12.85
2023-04-18T15:18:12.798Z,12.85
2023-04-18T15:19:52.596Z,12.85
2023-04-18T15:21:32.382Z,12.84
2023-04-18T15:23:12.103Z,12.87
2023-04-18T15:24:51.889Z,12.87
2023-04-18T15:26:31.619Z,12.87
2023-04-18T15:28:11.434Z,12.87
2023-04-18T15:29:51.140Z,12.86
2023-04-18T15:31:30.914Z,12.89
2023-04-18T15:33:10.691Z,12.88
2023-04-18T15:34:50.444Z,12.9
2023-04-18T15:36:30.212Z,12.89
2023-04-18T15:38:09.978Z,12.9
2023-04-18T15:39:49.743Z,12.9
2023-04-18T15:41:29.489Z,12.91
2023-04-18T15:43:09.269Z,12.92
2023-04-18T15:44:49.022Z,12.9
2023-04-18T15:46:28.818Z,12.87
2023-04-18T15:48:08.551Z,12.88
2023-04-18T15:49:48.320Z,12.89
2023-04-18T15:51:28.095Z,12.89
2023-04-18T15:53:07.839Z,12.89
2023-04-18T15:54:47.612Z,12.87
2023-04-18T15:56:27.370Z,12.8
2023-04-18T15:58:07.124Z,12.89
2023-04-18T15:59:46.904Z,12.88
2023-04-18T16:01:26.677Z,12.88
2023-04-18T16:03:06.450Z,12.88
2023-04-18T16:04:46.182Z,12.88
2023-04-18T16:06:25.963Z,12.83
2023-04-18T16:08:05.726Z,12.88
2023-04-18T16:09:45.493Z,12.86
2023-04-18T16:11:25.252Z,12.86
2023-04-18T16:13:04.995Z,12.86
2023-04-18T16:14:44.849Z,12.87
2023-04-18T16:18:04.288Z,12.84
2023-04-18T16:19:44.074Z,12.84
2023-04-18T16:21:23.837Z,12.77
2023-04-18T16:23:03.606Z,12.83
2023-04-18T16:24:43.344Z,12.82
2023-04-18T16:28:02.885Z,12.79
2023-04-18T16:29:42.664Z,12.81
2023-04-18T16:31:22.507Z,12.79
2023-04-18T16:33:02.268Z,12.78
2023-04-18T16:34:41.945Z,12.78
2023-04-18T16:38:01.549Z,12.76
2023-04-18T16:39:41.233Z,12.74
2023-04-18T16:41:21.023Z,12.76
2023-04-18T16:43:00.773Z,12.72
2023-04-18T16:44:40.544Z,12.71
2023-04-18T16:48:00.061Z,12.67
2023-04-18T16:49:39.843Z,12.67
2023-04-18T16:51:19.574Z,12.66
2023-04-18T16:52:59.449Z,12.65
2023-04-18T16:54:39.112Z,12.64
2023-04-18T16:56:18.881Z,12.6
2023-04-18T16:59:38.412Z,12.58
2023-04-18T17:01:18.185Z,12.57
2023-04-18T17:02:57.941Z,12.57
2023-04-18T17:04:37.753Z,12.55
2023-04-18T17:06:17.467Z,12.5
2023-04-18T17:07:57.221Z,12.51
2023-04-18T17:09:37.049Z,12.5
2023-04-18T17:11:16.783Z,12.47
2023-04-18T17:12:56.491Z,12.47
2023-04-18T17:14:36.255Z,12.44
2023-04-18T17:16:16.114Z,12.42
2023-04-18T17:17:55.792Z,12.4
2023-04-18T17:19:35.563Z,12.42
2023-04-18T17:21:15.354Z,12.4
2023-04-18T17:22:55.187Z,12.38
2023-04-18T17:24:34.959Z,12.38
2023-04-18T17:26:14.625Z,12.35
2023-04-18T17:29:34.166Z,12.33
2023-04-18T17:31:13.904Z,12.31
2023-04-18T17:32:53.674Z,12.3
2023-04-18T17:34:33.467Z,12.28
2023-04-18T17:36:13.312Z,12.26
2023-04-18T17:37:53.007Z,12.23
2023-04-18T17:39:32.733Z,12.21
2023-04-18T17:41:12.517Z,12.16
2023-04-18T17:42:52.252Z,12.16
2023-04-18T17:44:32.026Z,12.13
2023-04-18T17:46:11.788Z,12.1
2023-04-18T17:49:31.344Z,12.08
2023-04-18T17:52:50.846Z,12.03
2023-04-18T17:54:30.613Z,12
2023-04-18T17:56:10.365Z,11.98
2023-04-18T17:57:50.143Z,11.95
2023-04-18T17:59:29.904Z,11.93
2023-04-18T18:01:09.669Z,11.91
2023-04-18T18:02:49.438Z,11.88
2023-04-18T18:04:29.195Z,11.86
2023-04-18T18:06:08.981Z,11.84
2023-04-18T18:07:48.705Z,11.82
2023-04-18T18:09:28.466Z,11.79
2023-04-18T18:11:08.249Z,11.77
2023-04-18T18:12:48.010Z,11.75
2023-04-18T18:14:27.783Z,11.72
2023-04-18T18:16:07.628Z,11.7
2023-04-18T18:17:47.305Z,11.67
2023-04-18T18:19:27.077Z,11.65
2023-04-18T18:21:06.827Z,11.62
2023-04-18T18:22:46.584Z,11.61
2023-04-18T18:24:26.346Z,11.59
2023-04-18T18:26:06.141Z,11.57
2023-04-18T18:27:45.894Z,11.55
2023-04-18T18:29:25.732Z,11.51
2023-04-18T18:31:05.414Z,11.49
2023-04-18T18:32:45.217Z,11.47
2023-04-18T18:34:24.928Z,11.45
2023-04-18T18:36:04.713Z,11.42
2023-04-18T18:37:44.489Z,11.4
2023-04-18T18:39:24.220Z,11.37
2023-04-18T18:41:04.000Z,11.36
2023-04-18T18:42:43.757Z,11.33
2023-04-18T18:44:23.518Z,11.29
2023-04-18T18:46:03.272Z,11.29
2023-04-18T18:47:43.037Z,11.27
2023-04-18T18:49:22.829Z,11.25
2023-04-18T18:51:02.597Z,11.21
2023-04-18T18:52:42.348Z,11.18
2023-04-18T18:54:22.094Z,11.17
2023-04-18T18:57:41.634Z,11.11
2023-04-18T18:59:21.433Z,11.08
2023-04-18T19:01:01.159Z,11.08
2023-04-18T19:02:40.921Z,11.03
2023-04-18T19:04:20.699Z,11.02
2023-04-18T19:06:00.481Z,10.98
2023-04-18T19:07:40.207Z,10.97
2023-04-18T19:09:20.013Z,10.94
2023-04-18T19:10:59.760Z,10.87
2023-04-18T19:12:39.518Z,10.85
2023-04-18T19:14:19.267Z,10.82
2023-04-18T19:15:59.066Z,10.78
2023-04-18T19:17:38.811Z,10.74
2023-04-18T19:20:58.358Z,10.65
2023-04-18T19:22:38.106Z,10.6
2023-04-18T19:24:17.866Z,10.55
2023-04-18T19:25:57.626Z,10.52
2023-04-18T19:27:37.376Z,10.49
2023-04-18T19:29:17.144Z,10.44
2023-04-18T19:30:56.931Z,10.38
2023-04-18T19:32:36.684Z,10.34
2023-04-18T19:34:16.439Z,10.27
2023-04-18T19:35:56.217Z,10.21
2023-04-18T19:37:35.975Z,10.16
2023-04-18T19:39:15.735Z,10.12
2023-04-18T19:40:55.500Z,10.03
2023-04-18T19:42:35.318Z,10
2023-04-18T19:44:15.034Z,9.93
2023-04-18T19:47:34.556Z,9.82
2023-04-18T19:49:14.317Z,9.75
2023-04-18T19:50:54.139Z,9.7
2023-04-18T19:52:33.877Z,9.66
2023-04-18T19:54:13.662Z,9.62
2023-04-18T19:55:53.398Z,9.56
2023-04-18T19:57:33.206Z,9.53
2023-04-18T19:59:12.912Z,9.49
2023-04-18T20:00:52.668Z,9.46
2023-04-18T20:02:32.414Z,9.39
2023-04-18T20:04:12.191Z,9.35
2023-04-18T20:05:51.966Z,9.34
2023-04-18T20:09:11.489Z,9.26
2023-04-18T20:10:51.252Z,9.22
2023-04-18T20:12:31.068Z,9.18
2023-04-18T20:14:10.775Z,9.14
2023-04-18T20:15:50.559Z,9.14
2023-04-18T20:17:30.281Z,9.08
2023-04-18T20:19:10.065Z,9.05
2023-04-18T20:20:49.837Z,9.01
2023-04-18T20:22:29.598Z,8.97
2023-04-18T20:24:09.370Z,8.95
2023-04-18T20:25:49.124Z,8.89
2023-04-18T20:27:28.887Z,8.85
2023-04-18T20:29:08.642Z,8.84
2023-04-18T20:30:48.399Z,8.81
2023-04-18T20:32:28.188Z,8.78
2023-04-18T20:34:07.941Z,8.75
2023-04-18T20:35:47.790Z,8.72
2023-04-18T20:37:27.457Z,8.7
2023-04-18T20:39:07.222Z,8.64
2023-04-18T20:40:46.989Z,8.6
2023-04-18T20:42:26.751Z,8.56
2023-04-18T20:44:06.623Z,8.56
2023-04-18T20:49:05.835Z,8.43
2023-04-18T20:50:45.589Z,8.39
2023-04-18T20:52:25.346Z,8.35
2023-04-18T20:54:05.102Z,8.34
2023-04-18T20:55:44.870Z,8.32
2023-04-18T20:57:24.631Z,8.27
2023-04-18T20:59:04.405Z,8.28
2023-04-18T21:00:44.174Z,8.26
2023-04-18T21:02:23.923Z,8.24
2023-04-18T21:04:03.690Z,8.22
2023-04-18T21:05:43.449Z,8.2
2023-04-18T21:07:23.215Z,8.16
2023-04-18T21:09:03.000Z,8.12
2023-04-18T21:10:42.772Z,8.08
2023-04-18T21:12:22.507Z,8.06
2023-04-18T21:14:02.262Z,8.01
2023-04-18T21:17:21.866Z,7.97
2023-04-18T21:19:01.556Z,7.96
2023-04-18T21:22:21.130Z,7.88
2023-04-18T21:24:00.903Z,7.86
2023-04-18T21:25:40.637Z,7.84
2023-04-18T21:27:20.417Z,7.82
2023-04-18T21:29:00.169Z,7.76
2023-04-18T21:30:39.898Z,7.77
2023-04-18T21:32:19.757Z,7.75
2023-04-18T21:33:59.431Z,7.71
2023-04-18T21:35:39.194Z,7.69
2023-04-18T21:37:19.033Z,7.65
2023-04-18T21:38:58.724Z,7.63
2023-04-18T21:40:38.494Z,7.6
2023-04-18T21:42:18.256Z,7.56
2023-04-18T21:43:58.024Z,7.53
2023-04-18T21:48:57.323Z,7.44
2023-04-18T21:50:37.082Z,7.41
2023-04-18T21:52:16.838Z,7.37
2023-04-18T21:53:56.590Z,7.34
2023-04-18T21:55:36.368Z,7.32
2023-04-18T21:57:16.217Z,7.27
2023-04-18T21:58:55.987Z,7.25
2023-04-18T22:00:35.820Z,7.21
2023-04-18T22:02:15.523Z,7.22
2023-04-18T22:03:55.188Z,7.2
2023-04-18T22:05:35.021Z,7.16
2023-04-18T22:07:14.721Z,7.16
2023-04-18T22:08:54.488Z,7.13
2023-04-18T22:10:34.238Z,7.14
2023-04-18T22:12:14.013Z,7.09
2023-04-18T22:13:53.776Z,7.06
2023-04-18T22:15:33.550Z,7.04
2023-04-18T22:17:13.289Z,7.01
2023-04-18T22:18:53.095Z,6.99
2023-04-18T22:20:32.834Z,6.98
2023-04-18T22:22:12.591Z,6.95
2023-04-18T22:23:52.412Z,6.91
2023-04-18T22:25:32.139Z,6.89
2023-04-18T22:27:11.971Z,6.87
2023-04-18T22:28:51.738Z,6.84
2023-04-18T22:30:31.425Z,6.84
2023-04-18T22:32:11.174Z,6.82
2023-04-18T22:33:50.941Z,6.82